Time;durP1;ratioP1;P1;durP2;ratioP2;P2;SDS_P1;SDS_P2;PMS_P1;PMS_P2;Temp;Humidity;BMP_temperature;BMP_pressure;BME280_temperature;BME280_humidity;BME280_pressure;Samples;Min_cycle;Max_cycle;Signal;HPM_P1;HPM_P2
2022/01/16 00:04:27;;;;;;;33.47;19.80;;;;;;;-0.50;65.55;101619.28;5048112;28;20044;-78
2022/01/16 00:06:52;;;;;;;32.65;19.02;;;;;;;-0.33;65.39;101639.34;5050272;28;20032;-72
2022/01/16 00:09:17;;;;;;;41.63;24.00;;;;;;;-0.47;66.94;101625.56;5052387;28;20052;-74
2022/01/16 00:11:43;;;;;;;30.25;18.10;;;;;;;-0.51;66.77;101644.19;5049261;28;20106;-73
2022/01/16 00:14:10;;;;;;;29.88;18.02;;;;;;;-0.88;66.45;101615.13;5049091;28;20041;-71
2022/01/16 00:16:36;;;;;;;33.47;21.17;;;;;;;-0.75;67.33;101629.69;5046176;28;20048;-72
2022/01/16 00:19:02;;;;;;;30.52;17.88;;;;;;;-0.80;69.05;101618.22;5046972;28;20033;-73
2022/01/16 00:21:31;;;;;;;31.23;19.25;;;;;;;-0.74;67.65;101629.81;5034967;28;20075;-75
2022/01/16 00:26:31;;;;;;;23.35;17.98;;;;;;;-0.74;66.57;101645.28;5072633;27;20135;-70
2022/01/16 00:28:57;;;;;;;30.48;19.20;;;;;;;-0.83;66.75;101638.63;5055191;28;20056;-72
2022/01/16 00:31:23;;;;;;;36.30;19.55;;;;;;;-0.93;67.66;101642.28;5093019;28;20384;-71
2022/01/16 00:33:49;;;;;;;29.75;19.95;;;;;;;-0.86;67.44;101634.16;5059798;28;20468;-70
2022/01/16 00:36:18;;;;;;;28.38;19.63;;;;;;;-0.65;66.66;101665.59;5061673;28;20067;-76
2022/01/16 00:38:45;;;;;;;33.17;17.13;;;;;;;-0.81;66.38;101675.69;5057770;28;20051;-80
2022/01/16 00:41:12;;;;;;;32.58;17.75;;;;;;;-0.14;64.25;101690.41;5055917;28;20067;-72
2022/01/16 00:43:37;;;;;;;26.98;16.77;;;;;;;0.19;63.79;101707.09;5058221;28;20045;-71
2022/01/16 00:46:03;;;;;;;34.83;18.30;;;;;;;-0.59;65.66;101757.91;5060933;28;20583;-76
2022/01/16 00:48:28;;;;;;;34.80;20.05;;;;;;;-0.40;64.80;101789.25;5056529;28;20033;-76
2022/01/16 00:50:54;;;;;;;30.83;17.67;;;;;;;-0.37;64.25;101700.94;5061432;28;20040;-73
2022/01/16 00:53:19;;;;;;;42.00;18.08;;;;;;;0.28;61.82;101677.50;5068840;28;20098;-73
2022/01/16 00:55:45;;;;;;;31.17;19.25;;;;;;;0.50;61.22;101705.53;5076232;28;20044;-78
2022/01/16 00:58:10;;;;;;;30.02;18.80;;;;;;;0.63;59.09;101690.91;5053291;28;20481;-74
2022/01/16 01:00:36;;;;;;;27.35;19.20;;;;;;;0.52;59.15;101586.06;5059541;28;22106;-73
2022/01/16 01:03:02;;;;;;;30.45;17.98;;;;;;;0.49;58.45;101531.66;5056012;28;20061;-72
2022/01/16 01:05:28;;;;;;;28.92;17.73;;;;;;;0.58;57.90;101551.94;5058341;28;20032;-72
2022/01/16 01:07:55;;;;;;;26.77;15.93;;;;;;;0.58;58.31;101496.00;5057213;28;20051;-74
2022/01/16 01:10:27;;;;;;;25.45;17.17;;;;;;;0.49;57.22;101526.50;5059695;28;20074;-72
2022/01/16 01:12:54;;;;;;;38.53;18.17;;;;;;;0.45;58.32;101514.19;5078046;28;20036;-72
2022/01/16 01:15:26;;;;;;;44.95;18.70;;;;;;;0.53;58.39;101506.88;5078538;28;20448;-74
2022/01/16 01:17:53;;;;;;;28.55;17.33;;;;;;;0.75;57.91;101590.00;5079200;28;20051;-73
2022/01/16 01:20:20;;;;;;;33.80;18.85;;;;;;;0.60;58.37;101623.53;5079219;28;20052;-72
2022/01/16 01:22:48;;;;;;;29.90;17.48;;;;;;;0.52;59.02;101611.00;5081996;28;20363;-73
2022/01/16 01:25:15;;;;;;;37.85;19.75;;;;;;;0.49;57.95;101611.69;5079074;28;20079;-71
2022/01/16 01:27:43;;;;;;;31.85;18.95;;;;;;;0.44;59.34;101612.19;5077004;28;20115;-72
2022/01/16 01:30:11;;;;;;;31.02;19.58;;;;;;;0.40;58.86;101635.25;5061278;28;20043;-70
2022/01/16 01:32:38;;;;;;;24.15;17.77;;;;;;;0.30;59.60;101629.44;5078525;28;20492;-76
2022/01/16 01:35:09;;;;;;;28.88;19.48;;;;;;;-0.25;61.19;101616.59;5073760;28;20043;-75
2022/01/16 01:37:35;;;;;;;29.48;16.17;;;;;;;0.04;60.18;101633.88;5069652;28;20036;-73
2022/01/16 01:40:04;;;;;;;29.33;19.00;;;;;;;-0.19;60.59;101598.03;5062611;28;20106;-77
2022/01/16 01:52:45;;;;;;;26.55;16.95;;;;;;;-0.50;61.94;101664.00;4999213;28;20506;-73
2022/01/16 01:55:11;;;;;;;30.55;19.10;;;;;;;-0.43;61.65;101666.19;4996658;28;20050;-73
2022/01/16 01:57:36;;;;;;;28.85;17.73;;;;;;;-0.05;60.26;101662.59;4994973;28;20042;-72
2022/01/16 02:00:04;;;;;;;38.85;18.92;;;;;;;0.05;59.66;101674.38;5000676;28;20101;-73
2022/01/16 02:02:36;;;;;;;29.42;18.63;;;;;;;-0.07;59.97;101653.88;4999896;28;20034;-72
2022/01/16 02:05:02;;;;;;;25.05;17.17;;;;;;;-0.16;63.74;101684.25;4997581;28;20049;-71
2022/01/16 02:07:27;;;;;;;28.55;16.88;;;;;;;-0.55;63.51;101698.91;5000266;28;20054;-73
2022/01/16 02:09:53;;;;;;;30.60;19.35;;;;;;;-0.86;63.77;101675.41;5002082;28;20064;-71
2022/01/16 02:12:19;;;;;;;33.25;17.58;;;;;;;-0.64;62.78;101649.34;4997424;28;20054;-71
2022/01/16 02:15:28;;;;;;;27.80;17.52;;;;;;;-0.38;62.31;101681.06;5000799;28;20137;-70
2022/01/16 02:36:15;;;;;;;37.30;22.77;;;;;;;-0.97;67.63;101679.81;5005671;28;20437;-74
2022/01/16 02:38:41;;;;;;;43.50;25.05;;;;;;;-0.72;66.65;101691.78;5001786;28;20053;-72
2022/01/16 02:41:08;;;;;;;37.65;27.25;;;;;;;-0.98;68.03;101678.06;5003533;28;20105;-73
2022/01/16 02:43:35;;;;;;;44.33;28.83;;;;;;;-1.01;67.65;101687.25;5002863;28;20487;-77
2022/01/16 02:48:48;;;;;;;53.35;34.15;;;;;;;-1.39;68.06;101654.66;4999436;28;20049;-71
2022/01/16 02:51:17;;;;;;;37.03;24.00;;;;;;;-1.32;68.27;101669.72;5007112;28;20061;-76
2022/01/16 02:53:43;;;;;;;34.90;19.50;;;;;;;-1.50;67.25;101666.78;5001018;28;20124;-72
2022/01/16 02:56:08;;;;;;;28.55;17.77;;;;;;;-0.98;65.77;101665.16;4987466;28;20038;-79
2022/01/16 02:58:34;;;;;;;42.33;23.17;;;;;;;-1.09;66.70;101692.78;4984620;28;20386;-74
2022/01/16 03:01:00;;;;;;;45.72;24.58;;;;;;;-1.05;66.20;101665.56;4986212;28;20455;-73
2022/01/16 03:03:26;;;;;;;35.97;24.35;;;;;;;-1.36;66.54;101648.03;4986226;28;20337;-73
2022/01/16 03:05:52;;;;;;;48.17;28.60;;;;;;;-1.32;66.81;101641.41;4987763;28;20046;-72
2022/01/16 03:08:17;;;;;;;52.97;26.88;;;;;;;-1.06;66.82;101666.31;4988501;28;20050;-78
2022/01/16 03:11:08;;;;;;;44.15;28.27;;;;;;;-0.89;66.07;101680.31;4986879;28;20046;-74
2022/01/16 03:13:33;;;;;;;31.60;22.27;;;;;;;-0.86;65.29;101685.69;4987952;28;20046;-73
2022/01/16 03:16:00;;;;;;;35.17;20.92;;;;;;;-0.70;65.16;101639.53;4984909;28;20444;-72
2022/01/16 03:23:35;;;;;;;45.42;26.60;;;;;;;-1.02;64.22;101670.91;4981035;28;20120;-71
2022/01/16 03:26:01;;;;;;;32.78;22.90;;;;;;;-0.72;64.17;101669.47;4987888;28;20467;-71
2022/01/16 03:28:27;;;;;;;40.85;27.85;;;;;;;-0.30;63.42;101704.00;4988661;28;20054;-73
2022/01/16 03:30:54;;;;;;;36.38;26.52;;;;;;;-0.59;63.82;101678.88;4985139;28;20663;-78
2022/01/16 03:33:21;;;;;;;31.05;21.92;;;;;;;-0.81;64.09;101667.97;4986137;28;20087;-71
2022/01/16 03:35:48;;;;;;;44.17;22.33;;;;;;;-0.60;64.40;101691.69;4987877;28;20077;-73
2022/01/16 03:38:15;;;;;;;28.98;20.20;;;;;;;-0.62;63.71;101701.00;4986572;28;20398;-71
2022/01/16 03:40:40;;;;;;;29.23;20.42;;;;;;;-0.90;64.15;101670.81;4985961;28;20046;-74
2022/01/16 03:43:15;;;;;;;30.95;20.42;;;;;;;-0.72;63.34;101666.88;4986162;28;20497;-73
2022/01/16 03:45:45;;;;;;;29.50;22.35;;;;;;;-0.69;63.39;101674.81;4984282;28;20541;-74
2022/01/16 03:48:13;;;;;;;35.13;20.90;;;;;;;-0.94;63.93;101681.72;4985546;28;20124;-72
2022/01/16 03:50:39;;;;;;;28.17;18.10;;;;;;;-1.01;64.55;101682.09;4990319;28;20100;-75
2022/01/16 03:53:05;;;;;;;27.50;22.05;;;;;;;-1.23;64.87;101670.34;4988628;28;20061;-72
2022/01/16 03:55:32;;;;;;;32.13;23.23;;;;;;;-1.05;65.07;101706.75;4982442;28;20065;-71
2022/01/16 03:57:58;;;;;;;27.25;17.23;;;;;;;-1.06;64.75;101694.66;4979891;28;20117;-72
2022/01/16 04:00:25;;;;;;;26.58;18.50;;;;;;;-1.12;64.81;101691.69;4986586;28;20646;-71
2022/01/16 04:02:51;;;;;;;25.48;18.83;;;;;;;-1.05;65.22;101706.75;4985623;28;20053;-72
2022/01/16 04:05:17;;;;;;;23.77;17.85;;;;;;;-1.31;65.67;101695.59;4986610;28;20058;-72
2022/01/16 04:07:42;;;;;;;31.17;16.98;;;;;;;-1.39;66.01;101696.72;4986287;28;20076;-72
2022/01/16 04:10:09;;;;;;;24.38;16.88;;;;;;;-1.29;65.66;101683.72;4989546;28;20454;-73
2022/01/16 04:12:37;;;;;;;32.88;17.45;;;;;;;-1.21;65.88;101709.97;5019423;28;20804;-72
2022/01/16 04:17:31;;;;;;;31.45;18.15;;;;;;;-0.95;65.52;101741.75;4988649;28;20057;-71
2022/01/16 04:19:56;;;;;;;31.05;22.17;;;;;;;-1.35;66.10;101716.75;4986612;28;20042;-72
2022/01/16 04:22:22;;;;;;;23.85;15.20;;;;;;;-1.38;66.55;101724.28;4985980;28;20385;-74
2022/01/16 04:24:48;;;;;;;23.65;15.25;;;;;;;-1.02;66.18;101749.88;4988384;28;20046;-74
2022/01/16 04:27:14;;;;;;;20.10;13.60;;;;;;;-1.42;67.36;101718.81;4985489;28;20089;-72
2022/01/16 04:29:42;;;;;;;20.17;12.95;;;;;;;-1.42;67.77;101716.22;4986659;28;20049;-72
2022/01/16 04:32:08;;;;;;;26.52;14.13;;;;;;;-1.17;67.63;101745.44;4983382;28;22661;-73
2022/01/16 04:34:34;;;;;;;25.50;14.65;;;;;;;-1.66;68.53;101717.97;4985797;28;20042;-72
2022/01/16 04:36:59;;;;;;;17.35;11.13;;;;;;;-1.45;68.68;101714.34;4988596;28;20061;-72
2022/01/16 04:39:32;;;;;;;22.90;12.98;;;;;;;-1.65;69.68;101701.75;5017324;28;20478;-71
2022/01/16 04:44:42;;;;;;;19.95;13.57;;;;;;;-1.65;71.58;101740.34;4983033;28;20049;-72
2022/01/16 04:47:08;;;;;;;22.92;12.93;;;;;;;-1.86;72.21;101722.59;5015255;28;20050;-75
2022/01/16 04:49:33;;;;;;;23.83;13.07;;;;;;;-1.67;72.72;101752.22;4987615;28;20042;-74
2022/01/16 04:51:59;;;;;;;21.63;13.48;;;;;;;-1.89;72.92;101708.66;4984865;28;20022;-73
2022/01/16 04:54:25;;;;;;;19.42;13.80;;;;;;;-1.57;72.71;101741.78;4983247;28;20088;-74
2022/01/16 04:56:51;;;;;;;24.60;13.57;;;;;;;-1.88;73.28;101726.75;4998792;28;20151;-73
2022/01/16 04:59:17;;;;;;;20.00;13.43;;;;;;;-1.75;73.56;101736.25;4987020;28;20471;-72
2022/01/16 05:01:43;;;;;;;23.08;14.98;;;;;;;-1.70;73.99;101747.75;4987448;28;20168;-74
2022/01/16 05:06:33;;;;;;;34.88;11.98;;;;;;;-1.92;74.42;101722.16;5038059;27;20611;-77
2022/01/16 05:08:58;;;;;;;24.60;14.38;;;;;;;-1.73;74.41;101727.84;5012263;28;20053;-71
2022/01/16 05:11:26;;;;;;;24.27;13.45;;;;;;;-1.77;74.74;101727.50;5008437;28;20057;-71
2022/01/16 05:16:36;;;;;;;21.85;13.07;;;;;;;-2.02;74.96;101694.00;5012757;28;20038;-71
2022/01/16 05:19:10;;;;;;;28.23;13.73;;;;;;;-1.73;75.29;101714.97;5015023;28;20034;-73
2022/01/16 05:21:36;;;;;;;22.38;14.70;;;;;;;-1.92;75.50;101709.28;5015004;28;20029;-73
2022/01/16 05:24:07;;;;;;;29.50;16.25;;;;;;;-2.02;75.74;101702.59;5017533;28;20041;-72
2022/01/16 05:26:34;;;;;;;23.05;15.65;;;;;;;-1.94;75.91;101710.91;5016944;28;20111;-71
2022/01/16 05:29:00;;;;;;;22.15;13.57;;;;;;;-2.09;76.48;101702.06;5017608;28;20041;-73
2022/01/16 05:31:25;;;;;;;20.08;15.48;;;;;;;-2.19;77.23;101708.22;5014842;28;20329;-72
2022/01/16 05:33:51;;;;;;;23.65;14.77;;;;;;;-2.03;76.91;101700.84;5016664;28;20065;-74
2022/01/16 05:36:19;;;;;;;25.58;15.70;;;;;;;-2.01;77.63;101725.00;5017865;28;20110;-72
2022/01/16 05:38:45;;;;;;;28.65;17.23;;;;;;;-2.23;77.85;101704.53;5015741;28;20052;-69
2022/01/16 05:41:10;;;;;;;21.85;15.68;;;;;;;-2.04;78.25;101732.47;5017702;28;20478;-73
2022/01/16 05:43:36;;;;;;;26.98;15.45;;;;;;;-2.23;78.78;101737.06;5018592;28;21556;-77
2022/01/16 05:46:02;;;;;;;34.08;15.18;;;;;;;-2.04;78.37;101741.84;5017264;28;20179;-71
2022/01/16 05:48:27;;;;;;;23.55;14.27;;;;;;;-1.99;78.47;101743.06;5015777;28;20096;-72
2022/01/16 05:50:53;;;;;;;25.77;16.33;;;;;;;-2.05;78.28;101732.38;5014429;28;20038;-73
2022/01/16 05:53:19;;;;;;;23.83;15.38;;;;;;;-2.10;77.72;101719.19;5016287;28;20041;-73
2022/01/16 05:55:44;;;;;;;19.95;14.90;;;;;;;-2.05;78.06;101738.41;5050054;28;20552;-73
2022/01/16 05:58:10;;;;;;;25.45;16.00;;;;;;;-1.89;77.81;101762.66;5012335;28;20041;-75
2022/01/16 06:00:37;;;;;;;32.42;16.33;;;;;;;-2.06;78.05;101749.47;5018606;28;20533;-73
2022/01/16 06:03:03;;;;;;;30.88;15.23;;;;;;;-2.16;79.35;101776.19;5014385;28;20041;-73
2022/01/16 06:05:29;;;;;;;21.15;16.15;;;;;;;-2.14;79.00;101759.19;5011119;28;20089;-72
2022/01/16 06:08:00;;;;;;;25.55;15.32;;;;;;;-2.05;79.61;101765.81;5016030;28;20464;-72
2022/01/16 06:10:27;;;;;;;25.60;16.38;;;;;;;-1.92;80.02;101774.50;5014273;28;22244;-74
2022/01/16 06:12:53;;;;;;;28.38;16.52;;;;;;;-1.71;78.64;101762.28;5014103;28;20032;-72
2022/01/16 06:15:22;;;;;;;28.30;19.02;;;;;;;-1.65;79.14;101796.97;5015447;28;20450;-73
2022/01/16 06:17:49;;;;;;;25.33;16.05;;;;;;;-1.59;78.71;101792.22;5032613;28;20062;-71
2022/01/16 06:20:15;;;;;;;27.63;16.42;;;;;;;-1.66;78.92;101762.63;4999697;28;20030;-76
2022/01/16 06:22:44;;;;;;;25.88;17.38;;;;;;;-1.52;78.68;101781.63;5001530;28;20049;-73
2022/01/16 06:25:10;;;;;;;26.80;16.65;;;;;;;-1.34;78.63;101776.84;5033158;28;20034;-71
2022/01/16 06:27:36;;;;;;;30.10;17.95;;;;;;;-1.62;79.20;101795.47;4984380;28;20105;-72
2022/01/16 06:30:04;;;;;;;29.65;15.73;;;;;;;-1.55;79.13;101787.41;4999835;28;20042;-72
2022/01/16 06:32:29;;;;;;;31.25;16.55;;;;;;;-1.30;78.98;101784.00;5001337;28;20049;-76
2022/01/16 06:34:55;;;;;;;25.58;16.75;;;;;;;-1.24;78.15;101779.28;5001022;28;20545;-73
2022/01/16 06:37:20;;;;;;;26.40;16.77;;;;;;;-1.02;77.65;101801.38;4999693;28;20048;-71
2022/01/16 06:39:45;;;;;;;28.73;17.17;;;;;;;-1.11;77.55;101783.59;5000962;28;20474;-74
2022/01/16 06:42:11;;;;;;;36.28;18.10;;;;;;;-1.41;78.01;101796.13;5031033;28;20041;-72
2022/01/16 06:44:36;;;;;;;33.13;19.25;;;;;;;-1.72;79.41;101780.19;4999330;28;20061;-71
2022/01/16 06:47:02;;;;;;;32.33;18.23;;;;;;;-1.77;79.90;101777.28;5000801;28;20435;-73
2022/01/16 06:49:28;;;;;;;32.83;16.58;;;;;;;-1.67;80.09;101803.69;5000196;28;20509;-74
2022/01/16 06:51:53;;;;;;;23.77;17.95;;;;;;;-0.96;78.74;101809.50;5003277;28;20462;-77
2022/01/16 06:54:19;;;;;;;27.13;15.10;;;;;;;-0.87;77.84;101799.84;5000860;28;20095;-74
2022/01/16 06:56:44;;;;;;;27.65;17.40;;;;;;;-0.74;77.98;101810.19;4998087;28;20042;-70
2022/01/16 06:59:10;;;;;;;28.67;19.83;;;;;;;-0.91;78.40;101793.59;4999784;28;20026;-74
2022/01/16 07:01:35;;;;;;;30.60;21.55;;;;;;;-0.63;77.70;101800.63;5013153;28;20381;-71
2022/01/16 07:04:01;;;;;;;28.38;17.48;;;;;;;-0.49;77.86;101825.66;4999242;28;20389;-71
2022/01/16 07:06:26;;;;;;;27.00;17.90;;;;;;;-0.32;77.29;101820.72;4997876;28;20053;-73
2022/01/16 07:08:51;;;;;;;34.70;21.70;;;;;;;-0.70;77.97;101801.00;5032955;28;20100;-70
2022/01/16 07:11:17;;;;;;;25.13;17.33;;;;;;;-0.62;77.46;101788.63;5001435;28;20046;-70
2022/01/16 07:13:43;;;;;;;31.17;19.70;;;;;;;-0.38;77.21;101797.09;5000703;28;20538;-70
2022/01/16 07:16:09;;;;;;;29.40;20.92;;;;;;;-0.35;77.25;101803.38;5004226;28;20052;-70
2022/01/16 07:18:36;;;;;;;37.88;18.92;;;;;;;-0.44;77.47;101802.75;5002381;28;20113;-72
2022/01/16 07:21:01;;;;;;;32.55;22.10;;;;;;;-0.35;77.22;101808.53;5001945;28;20080;-71
2022/01/16 07:23:27;;;;;;;32.08;18.83;;;;;;;-0.59;77.09;101770.78;5001668;28;20049;-71
2022/01/16 07:25:52;;;;;;;30.77;20.30;;;;;;;-0.15;76.83;101817.56;5000112;28;20494;-70
2022/01/16 07:28:19;;;;;;;41.95;20.42;;;;;;;0.05;76.12;101825.72;4999074;28;20095;-69
2022/01/16 07:30:45;;;;;;;41.13;18.45;;;;;;;-0.02;75.71;101811.53;5003816;28;20029;-73
2022/01/16 07:33:11;;;;;;;36.55;23.00;;;;;;;0.04;76.18;101839.41;5001646;28;20048;-73
2022/01/16 07:35:37;;;;;;;34.67;22.50;;;;;;;0.12;76.06;101843.41;5000779;28;20041;-70
2022/01/16 07:38:04;;;;;;;42.03;29.38;;;;;;;-0.02;76.54;101835.66;4999124;28;20134;-76
2022/01/16 07:40:30;;;;;;;39.10;23.75;;;;;;;-0.13;76.70;101804.78;5014284;28;20033;-69
2022/01/16 07:42:55;;;;;;;35.85;21.30;;;;;;;0.33;75.22;101806.06;4996931;28;20508;-71
2022/01/16 07:45:21;;;;;;;31.77;21.45;;;;;;;0.30;74.91;101825.63;5004558;28;20040;-74
2022/01/16 07:47:48;;;;;;;31.98;20.40;;;;;;;0.38;74.97;101820.16;4999756;28;20392;-70
2022/01/16 07:50:16;;;;;;;36.97;24.85;;;;;;;0.40;73.88;101805.66;5000069;28;20034;-72
2022/01/16 07:52:42;;;;;;;37.58;25.60;;;;;;;0.60;74.33;101835.31;5001052;28;20053;-70
2022/01/16 07:55:08;;;;;;;32.00;20.90;;;;;;;0.71;74.01;101845.44;4999586;28;20030;-71
2022/01/16 07:57:34;;;;;;;33.72;22.50;;;;;;;0.78;73.01;101835.59;4995535;28;20025;-73
2022/01/16 07:59:59;;;;;;;36.10;21.42;;;;;;;0.80;72.68;101827.94;5033527;28;20497;-71
2022/01/16 08:02:24;;;;;;;36.33;23.67;;;;;;;1.01;72.23;101847.34;5002939;28;20050;-72
2022/01/16 08:04:50;;;;;;;28.15;19.02;;;;;;;0.95;72.19;101820.22;5001565;28;20368;-73
2022/01/16 08:07:16;;;;;;;34.30;22.48;;;;;;;1.13;72.19;101848.91;4998469;28;20478;-77
2022/01/16 08:09:42;;;;;;;43.67;26.17;;;;;;;0.64;72.65;101810.59;5000965;28;20026;-72
2022/01/16 08:12:08;;;;;;;36.42;25.58;;;;;;;0.33;73.78;101824.16;5000648;28;20046;-71
2022/01/16 08:14:35;;;;;;;28.50;22.85;;;;;;;0.98;72.43;101834.25;4998838;28;20065;-72
2022/01/16 08:17:01;;;;;;;34.08;21.23;;;;;;;1.00;72.01;101831.75;4997994;28;20074;-74
2022/01/16 08:19:27;;;;;;;37.85;24.15;;;;;;;0.70;72.81;101812.66;5002365;28;20050;-78
2022/01/16 08:21:53;;;;;;;39.72;24.75;;;;;;;0.57;72.26;101804.13;4998576;28;20056;-73
2022/01/16 08:24:19;;;;;;;36.28;25.83;;;;;;;0.61;73.28;101816.44;4997085;28;20033;-71
2022/01/16 08:26:45;;;;;;;34.30;25.58;;;;;;;0.42;74.03;101810.91;5031525;28;20061;-73
2022/01/16 08:29:12;;;;;;;44.38;25.30;;;;;;;1.16;72.47;101812.91;5001939;28;20563;-71
2022/01/16 08:31:38;;;;;;;39.33;26.60;;;;;;;1.27;71.30;101783.41;4998654;28;20053;-71
2022/01/16 08:34:04;;;;;;;38.65;26.67;;;;;;;1.51;70.43;101798.59;4997333;28;20034;-75
2022/01/16 08:36:30;;;;;;;37.25;25.15;;;;;;;1.12;70.83;101806.63;5002788;28;20601;-73
2022/01/16 08:38:55;;;;;;;36.03;23.40;;;;;;;1.32;70.59;101799.22;4998545;28;20706;-70
2022/01/16 08:41:21;;;;;;;44.60;26.05;;;;;;;1.50;70.24;101791.63;4998980;28;20053;-74
2022/01/16 08:43:47;;;;;;;37.72;24.27;;;;;;;1.72;69.73;101797.25;5000442;28;20120;-74
2022/01/16 08:46:13;;;;;;;40.08;25.23;;;;;;;1.46;69.61;101803.50;5001165;28;20124;-72
2022/01/16 08:48:39;;;;;;;37.13;21.42;;;;;;;1.35;70.10;101779.56;5002433;28;20130;-70
2022/01/16 08:51:04;;;;;;;39.20;21.92;;;;;;;1.56;69.81;101787.72;4998610;28;20393;-71
2022/01/16 08:53:30;;;;;;;36.83;23.90;;;;;;;1.89;68.84;101798.22;5000466;28;20061;-70
2022/01/16 08:55:57;;;;;;;27.75;19.90;;;;;;;1.83;68.25;101782.38;5000083;28;20385;-70
2022/01/16 08:58:22;;;;;;;36.47;22.48;;;;;;;1.86;68.35;101779.94;4994896;28;20066;-70
2022/01/16 09:00:50;;;;;;;37.70;23.42;;;;;;;2.09;68.16;101778.66;5001024;28;20036;-71
2022/01/16 09:03:21;;;;;;;37.88;22.92;;;;;;;2.35;67.51;101781.81;5002224;28;20478;-69
2022/01/16 09:05:47;;;;;;;36.38;23.20;;;;;;;2.19;66.73;101765.44;5033421;28;20050;-72
2022/01/16 09:08:14;;;;;;;35.17;24.27;;;;;;;2.21;66.34;101768.09;5009772;28;20038;-70
2022/01/16 09:10:41;;;;;;;35.85;22.35;;;;;;;2.18;66.86;101758.47;5003456;28;20077;-69
2022/01/16 09:13:11;;;;;;;32.10;21.70;;;;;;;2.28;67.02;101788.34;5001547;28;20466;-70
2022/01/16 09:15:39;;;;;;;31.20;20.42;;;;;;;2.27;66.83;101755.47;5000155;28;20022;-69
2022/01/16 09:18:06;;;;;;;27.77;20.65;;;;;;;2.06;66.86;101756.09;5007179;28;20064;-69
2022/01/16 09:20:34;;;;;;;32.72;22.15;;;;;;;2.41;67.19;101774.38;5012477;28;20068;-69
2022/01/16 09:23:00;;;;;;;36.47;22.83;;;;;;;2.34;66.73;101747.25;5009019;28;20496;-70
2022/01/16 09:25:55;;;;;;;36.47;22.23;;;;;;;2.46;66.07;101739.28;5007857;28;20049;-70
2022/01/16 09:28:20;;;;;;;37.85;23.85;;;;;;;2.30;67.12;101741.03;5003348;28;20045;-73
2022/01/16 09:30:46;;;;;;;37.13;23.55;;;;;;;2.87;65.56;101730.22;5017763;28;20042;-70
2022/01/16 09:33:12;;;;;;;29.67;22.65;;;;;;;3.03;64.56;101730.19;4985436;28;20030;-72
2022/01/16 09:35:53;;;;;;;32.67;23.00;;;;;;;3.32;63.76;101757.63;5009436;28;20457;-72
2022/01/16 09:38:18;;;;;;;30.55;22.35;;;;;;;3.42;63.30;101756.41;5002980;28;20407;-71
2022/01/16 09:40:46;;;;;;;27.10;19.92;;;;;;;2.95;63.95;101732.41;5004860;28;20046;-71
2022/01/16 09:43:11;;;;;;;39.28;22.67;;;;;;;2.80;64.23;101736.78;5003937;28;20504;-72
2022/01/16 09:45:37;;;;;;;26.30;20.45;;;;;;;3.01;63.86;101747.38;5005244;28;20038;-72
2022/01/16 09:48:03;;;;;;;27.90;20.75;;;;;;;2.90;63.53;101732.94;5002352;28;20042;-72
2022/01/16 09:50:28;;;;;;;25.40;18.50;;;;;;;2.76;64.30;101740.00;4998799;28;20486;-71
2022/01/16 09:52:54;;;;;;;30.52;21.13;;;;;;;2.91;64.32;101734.75;5003764;28;20088;-71
2022/01/16 09:55:20;;;;;;;28.27;20.25;;;;;;;2.66;64.79;101725.66;5050013;28;20057;-70
2022/01/16 09:57:47;;;;;;;35.95;22.92;;;;;;;2.73;64.55;101717.41;5005175;28;20130;-71
2022/01/16 10:00:20;;;;;;;36.28;22.83;;;;;;;3.00;64.47;101713.56;5008192;28;20048;-71
2022/01/16 10:02:46;;;;;;;36.80;22.50;;;;;;;2.90;65.03;101740.72;5016055;28;20564;-71
2022/01/16 10:05:22;;;;;;;36.35;25.13;;;;;;;3.55;64.15;101727.66;5008379;28;20132;-71
2022/01/16 10:07:48;;;;;;;51.38;30.50;;;;;;;3.61;63.23;101733.97;5032604;28;20046;-73
2022/01/16 10:10:14;;;;;;;33.33;22.23;;;;;;;3.81;62.79;101744.50;5004960;28;20393;-74
2022/01/16 10:12:51;;;;;;;40.85;25.02;;;;;;;3.62;63.14;101731.44;5007997;28;20029;-88
2022/01/16 10:15:19;;;;;;;34.10;24.25;;;;;;;3.58;63.39;101719.13;5005399;28;20124;-72
2022/01/16 10:17:47;;;;;;;32.78;22.60;;;;;;;3.65;63.28;101756.66;5009021;28;20081;-72
2022/01/16 10:20:16;;;;;;;29.98;21.60;;;;;;;3.84;62.63;101729.88;5006123;28;20128;-69
2022/01/16 10:22:54;;;;;;;34.92;22.88;;;;;;;4.17;62.22;101735.84;5007258;28;20041;-72
2022/01/16 10:25:41;;;;;;;34.15;23.15;;;;;;;3.77;63.25;101713.16;5020875;28;20115;-72
2022/01/16 10:28:26;;;;;;;39.45;24.45;;;;;;;4.01;63.08;101742.88;5016017;28;20029;-71
2022/01/16 10:34:32;;;;;;;37.85;23.90;;;;;;;4.48;62.00;101719.06;5016164;28;20084;-73
2022/01/16 10:36:58;;;;;;;;;;;;;;;4.27;61.43;101698.19;5017533;28;20026;-71
2022/01/16 10:44:00;;;;;;;37.50;22.05;;;;;;;4.35;61.06;101702.00;5051538;28;20048;-73
2022/01/16 10:46:26;;;;;;;28.77;20.52;;;;;;;4.53;59.86;101683.78;5048175;28;20037;-85
2022/01/16 10:49:19;;;;;;;26.05;19.40;;;;;;;4.70;58.07;101676.72;5037876;28;20494;-75
2022/01/16 10:52:05;;;;;;;33.42;21.35;;;;;;;5.36;58.16;101703.88;5042499;28;20599;-74
2022/01/16 10:54:34;;;;;;;32.20;21.48;;;;;;;5.25;57.93;101695.59;5036682;28;20052;-74
2022/01/16 10:57:18;;;;;;;30.42;23.27;;;;;;;5.71;56.79;101667.97;5036262;28;20473;-75
2022/01/16 10:59:44;;;;;;;28.15;18.90;;;;;;;5.63;56.17;101661.56;5039174;28;20052;-75
2022/01/16 11:02:10;;;;;;;31.50;21.98;;;;;;;5.78;56.50;101662.16;5036783;28;20050;-74
2022/01/16 11:04:35;;;;;;;34.35;22.75;;;;;;;5.37;56.77;101652.72;5037922;28;20033;-77
2022/01/16 11:07:05;;;;;;;27.27;18.23;;;;;;;6.28;54.75;101655.47;5039727;28;20025;-72
2022/01/16 11:09:32;;;;;;;28.58;20.60;;;;;;;6.68;54.32;101667.34;5039568;28;20090;-73
2022/01/16 11:15:10;;;;;;;30.08;20.73;;;;;;;6.28;55.31;101641.56;5036238;27;20619;-74
2022/01/16 11:17:38;;;;;;;29.35;21.02;;;;;;;6.32;55.81;101664.25;5027967;28;20048;-74
2022/01/16 11:20:07;;;;;;;34.65;21.25;;;;;;;6.02;56.93;101651.88;5021940;28;20041;-72
2022/01/16 11:22:45;;;;;;;28.58;19.80;;;;;;;6.16;55.91;101664.53;5026716;28;20057;-75
2022/01/16 11:25:23;;;;;;;23.40;18.20;;;;;;;6.04;56.23;101650.22;5021842;28;20704;-72
2022/01/16 11:27:51;;;;;;;26.50;20.25;;;;;;;5.47;57.33;101632.31;5011473;28;20022;-71
2022/01/16 11:30:17;;;;;;;34.95;22.55;;;;;;;5.40;57.93;101637.22;5032142;28;20029;-72
2022/01/16 11:32:44;;;;;;;30.52;20.92;;;;;;;5.64;58.43;101650.31;5025070;28;20057;-70
2022/01/16 11:35:10;;;;;;;37.60;22.33;;;;;;;5.23;58.79;101627.00;5019696;28;20437;-73
2022/01/16 11:37:36;;;;;;;35.28;22.10;;;;;;;5.58;56.86;101626.66;5016728;28;20025;-71
2022/01/16 11:40:41;;;;;;;28.77;19.63;;;;;;;5.27;57.12;101647.13;5033567;28;21906;-72
2022/01/16 11:43:23;;;;;;;30.20;21.15;;;;;;;5.54;57.16;101653.38;5031296;28;20075;-75
2022/01/16 11:46:07;;;;;;;33.30;20.02;;;;;;;5.26;57.23;101640.13;5023831;28;20105;-70
2022/01/16 11:48:47;;;;;;;33.83;20.77;;;;;;;5.63;56.60;101649.44;5019675;28;20069;-78
2022/01/16 11:51:31;;;;;;;26.95;20.33;;;;;;;5.08;56.24;101622.06;5016344;28;20468;-71
2022/01/16 11:54:04;;;;;;;24.38;17.58;;;;;;;5.09;56.66;101609.94;5014720;28;20083;-71
2022/01/16 11:56:42;;;;;;;;;;;;;;;5.29;53.26;101641.97;5001086;28;20734;-69
2022/01/16 11:59:22;;;;;;;30.27;17.92;;;;;;;5.09;54.33;101628.13;5014593;28;20234;-70
2022/01/16 12:02:00;;;;;;;24.63;18.10;;;;;;;5.07;54.54;101619.38;5019191;28;20397;-72
2022/01/16 12:04:31;;;;;;;29.60;17.83;;;;;;;4.84;54.57;101626.19;5020582;28;20044;-70
2022/01/16 12:07:17;;;;;;;30.73;17.25;;;;;;;5.15;54.75;101617.09;5015104;28;20553;-70
2022/01/16 12:12:10;;;;;;;32.08;18.27;;;;;;;5.28;55.46;101615.06;5024169;28;20080;-70
2022/01/16 12:17:58;;;;;;;30.27;20.70;;;;;;;4.92;57.53;101619.63;5019301;28;20405;-68
2022/01/16 12:20:28;;;;;;;31.58;18.88;;;;;;;5.10;56.60;101596.09;5018541;28;20061;-70
2022/01/16 12:23:03;;;;;;;25.88;17.90;;;;;;;4.94;56.45;101598.88;5031628;28;20420;-69
2022/01/16 12:25:52;;;;;;;27.05;17.30;;;;;;;5.27;55.86;101589.00;5008270;28;20048;-70
2022/01/16 12:28:31;;;;;;;28.85;18.05;;;;;;;4.94;55.36;101570.25;4997212;28;20045;-70